Ashley, Ohio
Current Conditions -  °F | °C
As of 9:25 AM on Wednesday 28 Jan 2015 (Local Time) from KDLZ Reporting Station
Haze Haze  
Wind Chill:   Ceiling: Unl
Heat Index:   Visibility: 4mi
Dew Point:   Wind: 0mph
Humidity: 85%   Direction: NA
Pressure: 30.37"   Gusts: NA
Location:  40.41°N, 82.96°W
Report Text: KDLZ 281425Z AUTO 00000KT 4SM BR CLR M15/M17 A3037 RMK AO2
Loading
Personal Weather Stations






























Interactive Weather Map New forecast layout! Learn more

10-Day Weather Forecast

Advertisements
Track Severe Weather on mobile